Time,TemperatureF,DewpointF,PressureIn,WindDirection,WindDirectionDegrees,WindSpeedMPH,WindSpeedGustMPH,Humidity,HourlyPrecipIn,Conditions,Clouds,dailyrainin,SoftwareType,DateUTC
2013-06-30 00:00:00,61.5,60.3,29.61,ENE,71,0.0,0.0,96,0.00,,,0.00,Wunderground v.1.15,2013-06-30 04:00:00,
2013-06-30 00:05:00,61.3,60.2,29.61,ENE,71,0.0,0.0,96,0.00,,,0.00,Wunderground v.1.15,2013-06-30 04:05:00,
2013-06-30 00:10:00,61.5,60.3,29.61,ENE,71,0.0,0.0,96,0.00,,,0.00,Wunderground v.1.15,2013-06-30 04:10:00,
2013-06-30 00:15:00,61.6,60.4,29.61,ENE,71,0.0,0.0,96,0.00,,,0.00,Wunderground v.1.15,2013-06-30 04:15:00,
2013-06-30 00:20:00,61.8,60.6,29.61,ENE,71,0.0,0.0,96,0.00,,,0.00,Wunderground v.1.15,2013-06-30 04:20:00,
2013-06-30 00:25:00,61.8,60.6,29.61,ENE,71,0.0,0.0,96,0.00,,,0.00,Wunderground v.1.15,2013-06-30 04:25:00,
2013-06-30 00:30:00,61.8,60.6,29.61,ENE,71,0.0,0.0,96,0.00,,,0.00,Wunderground v.1.15,2013-06-30 04:30:00,
2013-06-30 00:40:00,61.5,60.3,29.61,ENE,71,0.0,0.0,96,0.00,,,0.00,Wunderground v.1.15,2013-06-30 04:40:00,
2013-06-30 00:45:00,61.3,60.2,29.61,ENE,71,0.0,0.0,96,0.00,,,0.00,Wunderground v.1.15,2013-06-30 04:45:00,
2013-06-30 00:55:00,61.2,60.1,29.61,ENE,71,0.0,0.0,96,0.00,,,0.00,Wunderground v.1.15,2013-06-30 04:55:00,
2013-06-30 01:00:00,61.0,59.9,29.61,ENE,71,0.0,0.0,96,0.00,,,0.00,Wunderground v.1.15,2013-06-30 05:00:00,
2013-06-30 01:10:00,60.7,59.6,29.61,ENE,71,0.0,0.0,96,0.00,,,0.00,Wunderground v.1.15,2013-06-30 05:10:00,
2013-06-30 01:15:00,60.5,59.4,29.61,ENE,71,0.0,0.0,96,0.00,,,0.00,Wunderground v.1.15,2013-06-30 05:15:00,
2013-06-30 01:25:00,60.5,59.4,29.61,ENE,71,0.0,0.0,96,0.00,,,0.00,Wunderground v.1.15,2013-06-30 05:25:00,
2013-06-30 01:30:00,60.5,59.4,29.61,ENE,71,0.0,0.0,96,0.00,,,0.00,Wunderground v.1.15,2013-06-30 05:30:00,
2013-06-30 01:40:00,60.4,59.3,29.61,ENE,71,0.0,0.0,96,0.00,,,0.00,Wunderground v.1.15,2013-06-30 05:40:00,
2013-06-30 01:45:00,60.4,59.3,29.62,ENE,71,0.0,0.0,96,0.00,,,0.00,Wunderground v.1.15,2013-06-30 05:45:00,
2013-06-30 01:55:00,60.4,59.3,29.62,ENE,71,0.0,0.0,96,0.00,,,0.00,Wunderground v.1.15,2013-06-30 05:55:00,
2013-06-30 02:00:00,60.2,59.1,29.62,ENE,71,0.0,0.0,96,0.00,,,0.00,Wunderground v.1.15,2013-06-30 06:00:00,
2013-06-30 02:05:00,60.2,59.1,29.62,ENE,71,0.0,0.0,96,0.00,,,0.00,Wunderground v.1.15,2013-06-30 06:05:00,
2013-06-30 02:15:00,60.1,59.0,29.62,ENE,71,0.0,0.0,96,0.00,,,0.00,Wunderground v.1.15,2013-06-30 06:15:00,
2013-06-30 02:25:00,60.1,59.0,29.62,ENE,71,0.0,0.0,96,0.00,,,0.00,Wunderground v.1.15,2013-06-30 06:25:00,
2013-06-30 02:30:00,60.1,59.0,29.62,ENE,71,0.0,0.0,96,0.00,,,0.00,Wunderground v.1.15,2013-06-30 06:30:00,
2013-06-30 02:40:00,60.5,59.4,29.62,ENE,71,0.0,0.0,96,0.00,,,0.00,Wunderground v.1.15,2013-06-30 06:40:00,
2013-06-30 02:45:00,60.7,59.6,29.62,ENE,71,0.0,0.0,96,0.00,,,0.00,Wunderground v.1.15,2013-06-30 06:45:00,
2013-06-30 02:55:00,61.2,60.1,29.62,ENE,71,0.0,0.0,96,0.00,,,0.00,Wunderground v.1.15,2013-06-30 06:55:00,
2013-06-30 03:00:00,61.6,60.7,29.62,ENE,71,0.0,0.0,97,0.00,,,0.00,Wunderground v.1.15,2013-06-30 07:00:00,
2013-06-30 03:05:00,61.8,60.9,29.62,ENE,71,0.0,0.0,97,0.00,,,0.00,Wunderground v.1.15,2013-06-30 07:05:00,
2013-06-30 03:15:00,62.0,61.1,29.62,ENE,71,0.0,0.0,97,0.00,,,0.00,Wunderground v.1.15,2013-06-30 07:15:00,
2013-06-30 03:25:00,62.1,61.2,29.62,ENE,71,0.0,0.0,97,0.00,,,0.00,Wunderground v.1.15,2013-06-30 07:25:00,
2013-06-30 03:30:00,62.3,61.1,29.61,ENE,71,0.0,0.0,96,0.00,,,0.00,Wunderground v.1.15,2013-06-30 07:30:00,
2013-06-30 03:40:00,62.3,61.4,29.61,ENE,71,0.0,0.0,97,0.00,,,0.00,Wunderground v.1.15,2013-06-30 07:40:00,
2013-06-30 03:45:00,62.4,61.5,29.61,ENE,71,0.0,0.0,97,0.00,,,0.00,Wunderground v.1.15,2013-06-30 07:45:00,
2013-06-30 03:55:00,62.4,61.5,29.61,ENE,71,0.0,0.0,97,0.00,,,0.00,Wunderground v.1.15,2013-06-30 07:55:00,
2013-06-30 04:00:00,62.4,61.5,29.61,ENE,71,0.0,0.0,97,0.00,,,0.00,Wunderground v.1.15,2013-06-30 08:00:00,
2013-06-30 04:10:00,62.6,61.7,29.61,ENE,71,0.0,0.0,97,0.00,,,0.00,Wunderground v.1.15,2013-06-30 08:10:00,
2013-06-30 04:15:00,62.6,61.7,29.61,ENE,71,0.0,0.0,97,0.00,,,0.00,Wunderground v.1.15,2013-06-30 08:15:00,
2013-06-30 04:25:00,62.6,61.7,29.61,ENE,71,0.0,0.0,97,0.00,,,0.00,Wunderground v.1.15,2013-06-30 08:25:00,
2013-06-30 04:30:00,62.6,61.7,29.61,ENE,71,0.0,0.0,97,0.00,,,0.00,Wunderground v.1.15,2013-06-30 08:30:00,
2013-06-30 04:40:00,62.6,61.7,29.61,ENE,71,0.0,0.0,97,0.00,,,0.00,Wunderground v.1.15,2013-06-30 08:40:00,
2013-06-30 04:45:00,62.6,61.7,29.61,ENE,71,0.0,0.0,97,0.00,,,0.00,Wunderground v.1.15,2013-06-30 08:45:00,
2013-06-30 04:55:00,62.6,61.7,29.61,ENE,71,0.0,0.0,97,0.00,,,0.00,Wunderground v.1.15,2013-06-30 08:55:00,
2013-06-30 05:00:00,62.6,61.7,29.61,ENE,71,0.0,0.0,97,0.00,,,0.00,Wunderground v.1.15,2013-06-30 09:00:00,
2013-06-30 05:10:00,62.7,61.8,29.61,ENE,71,0.0,0.0,97,0.00,,,0.00,Wunderground v.1.15,2013-06-30 09:10:00,
2013-06-30 05:15:00,62.7,61.8,29.61,ENE,71,0.0,0.0,97,0.00,,,0.00,Wunderground v.1.15,2013-06-30 09:15:00,
2013-06-30 05:25:00,62.6,61.7,29.61,ENE,71,0.0,0.0,97,0.00,,,0.00,Wunderground v.1.15,2013-06-30 09:25:00,
2013-06-30 05:30:00,62.6,61.7,29.62,ENE,71,0.0,0.0,97,0.00,,,0.00,Wunderground v.1.15,2013-06-30 09:30:00,
2013-06-30 05:40:00,62.6,61.7,29.62,ENE,71,0.0,0.0,97,0.00,,,0.00,Wunderground v.1.15,2013-06-30 09:40:00,
2013-06-30 05:45:00,62.6,61.7,29.63,ENE,71,0.0,0.0,97,0.00,,,0.00,Wunderground v.1.15,2013-06-30 09:45:00,
2013-06-30 05:55:00,62.6,61.7,29.63,ENE,71,0.0,0.0,97,0.00,,,0.00,Wunderground v.1.15,2013-06-30 09:55:00,
2013-06-30 06:00:00,62.6,61.7,29.63,ENE,71,0.0,0.0,97,0.00,,,0.00,Wunderground v.1.15,2013-06-30 10:00:00,
2013-06-30 06:10:00,62.6,61.7,29.63,ENE,71,0.0,0.0,97,0.00,,,0.00,Wunderground v.1.15,2013-06-30 10:10:00,
2013-06-30 06:15:00,62.6,61.7,29.63,ENE,71,0.0,0.0,97,0.00,,,0.00,Wunderground v.1.15,2013-06-30 10:15:00,
2013-06-30 06:25:00,62.6,61.7,29.63,ENE,71,0.0,0.0,97,0.00,,,0.00,Wunderground v.1.15,2013-06-30 10:25:00,
2013-06-30 06:30:00,62.6,61.7,29.64,ENE,71,0.0,0.0,97,0.00,,,0.00,Wunderground v.1.15,2013-06-30 10:30:00,
2013-06-30 06:40:00,62.6,61.7,29.64,ENE,71,0.0,0.0,97,0.00,,,0.00,Wunderground v.1.15,2013-06-30 10:40:00,
2013-06-30 06:45:00,62.6,61.7,29.64,ENE,71,0.0,0.0,97,0.00,,,0.00,Wunderground v.1.15,2013-06-30 10:45:00,
2013-06-30 06:55:00,62.6,61.7,29.64,ENE,71,0.0,0.0,97,0.00,,,0.00,Wunderground v.1.15,2013-06-30 10:55:00,
2013-06-30 07:00:00,62.7,61.8,29.64,ENE,71,0.0,0.0,97,0.00,,,0.00,Wunderground v.1.15,2013-06-30 11:00:00,
2013-06-30 07:10:00,62.7,61.8,29.64,ENE,71,0.0,0.0,97,0.00,,,0.00,Wunderground v.1.15,2013-06-30 11:10:00,
2013-06-30 07:15:00,62.7,61.8,29.65,ENE,71,0.0,0.0,97,0.00,,,0.00,Wunderground v.1.15,2013-06-30 11:15:00,
2013-06-30 07:25:00,62.9,62.0,29.65,ENE,71,0.0,0.0,97,0.00,,,0.00,Wunderground v.1.15,2013-06-30 11:25:00,
2013-06-30 07:30:00,62.9,62.0,29.65,ENE,71,0.0,0.0,97,0.00,,,0.00,Wunderground v.1.15,2013-06-30 11:30:00,
2013-06-30 07:40:00,63.1,62.2,29.65,ENE,71,0.0,0.0,97,0.00,,,0.00,Wunderground v.1.15,2013-06-30 11:40:00,
2013-06-30 07:45:00,63.1,62.2,29.66,ENE,71,0.0,0.0,97,0.00,,,0.00,Wunderground v.1.15,2013-06-30 11:45:00,
2013-06-30 07:55:00,63.2,62.3,29.66,ENE,71,0.0,0.0,97,0.00,,,0.00,Wunderground v.1.15,2013-06-30 11:55:00,
2013-06-30 08:00:00,63.2,62.3,29.66,ENE,71,0.0,0.0,97,0.00,,,0.01,Wunderground v.1.15,2013-06-30 12:00:00,
2013-06-30 08:10:00,63.2,62.3,29.66,ENE,71,0.0,0.0,97,0.00,,,0.01,Wunderground v.1.15,2013-06-30 12:10:00,
2013-06-30 08:15:00,63.4,62.5,29.66,ENE,71,0.0,0.0,97,0.00,,,0.01,Wunderground v.1.15,2013-06-30 12:15:00,
2013-06-30 08:25:00,63.5,62.6,29.66,ENE,71,0.0,0.0,97,0.00,,,0.01,Wunderground v.1.15,2013-06-30 12:25:00,
2013-06-30 08:30:00,63.5,62.6,29.67,ENE,71,0.0,0.0,97,0.00,,,0.01,Wunderground v.1.15,2013-06-30 12:30:00,
2013-06-30 08:40:00,63.7,62.8,29.67,ENE,71,0.0,0.0,97,0.00,,,0.01,Wunderground v.1.15,2013-06-30 12:40:00,
2013-06-30 08:45:00,63.9,63.0,29.67,ENE,71,0.0,0.0,97,0.00,,,0.01,Wunderground v.1.15,2013-06-30 12:45:00,
2013-06-30 08:55:00,64.0,63.1,29.67,ENE,71,0.0,0.0,97,0.00,,,0.01,Wunderground v.1.15,2013-06-30 12:55:00,
2013-06-30 09:00:00,64.3,63.4,29.68,ENE,71,0.0,0.0,97,0.00,,,0.01,Wunderground v.1.15,2013-06-30 13:00:00,
2013-06-30 09:10:00,64.8,63.9,29.68,ENE,71,0.0,0.0,97,0.00,,,0.01,Wunderground v.1.15,2013-06-30 13:10:00,
2013-06-30 09:15:00,65.0,64.1,29.68,ENE,71,0.0,0.0,97,0.00,,,0.01,Wunderground v.1.15,2013-06-30 13:15:00,
2013-06-30 09:25:00,64.8,63.9,29.68,ENE,71,0.0,0.0,97,0.00,,,0.01,Wunderground v.1.15,2013-06-30 13:25:00,
2013-06-30 09:30:00,64.8,63.9,29.69,ENE,71,0.0,0.0,97,0.00,,,0.01,Wunderground v.1.15,2013-06-30 13:30:00,
2013-06-30 09:40:00,65.6,64.7,29.69,ENE,71,0.0,0.0,97,0.00,,,0.01,Wunderground v.1.15,2013-06-30 13:40:00,
2013-06-30 09:45:00,65.8,64.9,29.69,SSE,148,0.0,0.0,97,0.00,,,0.01,Wunderground v.1.15,2013-06-30 13:45:00,
2013-06-30 09:55:00,66.0,65.1,29.69,SSE,148,0.0,0.0,97,0.00,,,0.01,Wunderground v.1.15,2013-06-30 13:55:00,
2013-06-30 10:00:00,66.0,65.1,29.69,NNE,30,0.0,0.0,97,0.00,,,0.01,Wunderground v.1.15,2013-06-30 14:00:00,
2013-06-30 10:05:00,66.1,65.2,29.69,NNE,30,0.0,0.0,97,0.00,,,0.01,Wunderground v.1.15,2013-06-30 14:05:00,
2013-06-30 10:15:00,66.9,66.0,29.69,NNE,30,0.0,0.0,97,0.00,,,0.01,Wunderground v.1.15,2013-06-30 14:15:00,
2013-06-30 10:25:00,66.9,66.0,29.69,NNE,28,0.0,0.0,97,0.00,,,0.01,Wunderground v.1.15,2013-06-30 14:25:00,
2013-06-30 10:30:00,66.9,66.0,29.69,NNE,28,0.0,0.0,97,0.00,,,0.01,Wunderground v.1.15,2013-06-30 14:30:00,
2013-06-30 10:40:00,67.1,65.9,29.69,NNE,13,0.0,0.0,96,0.00,,,0.01,Wunderground v.1.15,2013-06-30 14:40:00,
2013-06-30 10:45:00,67.3,66.1,29.69,North,355,0.0,0.0,96,0.00,,,0.01,Wunderground v.1.15,2013-06-30 14:45:00,
2013-06-30 10:55:00,67.4,66.2,29.69,ENE,58,0.0,0.0,96,0.00,,,0.01,Wunderground v.1.15,2013-06-30 14:55:00,
2013-06-30 11:00:00,67.4,66.2,29.69,ENE,58,0.0,0.0,96,0.00,,,0.01,Wunderground v.1.15,2013-06-30 15:00:00,
2013-06-30 11:10:00,67.8,66.6,29.69,NNE,26,0.0,0.0,96,0.00,,,0.01,Wunderground v.1.15,2013-06-30 15:10:00,
2013-06-30 11:15:00,68.3,66.8,29.70,NNE,26,0.0,0.0,95,0.00,,,0.01,Wunderground v.1.15,2013-06-30 15:15:00,
2013-06-30 11:25:00,68.4,66.6,29.70,NNE,26,0.0,0.0,94,0.00,,,0.01,Wunderground v.1.15,2013-06-30 15:25:00,
2013-06-30 11:30:00,68.9,67.1,29.70,NNE,26,0.0,0.0,94,0.00,,,0.01,Wunderground v.1.15,2013-06-30 15:30:00,
2013-06-30 11:40:00,68.9,66.5,29.70,NNE,26,0.0,0.0,92,0.00,,,0.01,Wunderground v.1.15,2013-06-30 15:40:00,
2013-06-30 11:45:00,69.3,66.9,29.70,NNE,26,0.0,0.0,92,0.00,,,0.01,Wunderground v.1.15,2013-06-30 15:45:00,
2013-06-30 11:55:00,70.1,66.4,29.70,NE,34,1.0,1.0,88,0.00,,,0.01,Wunderground v.1.15,2013-06-30 15:55:00,
2013-06-30 12:00:00,70.6,66.5,29.70,NE,36,1.0,1.0,87,0.00,,,0.01,Wunderground v.1.15,2013-06-30 16:00:00,
2013-06-30 12:10:00,71.8,67.0,29.70,North,10,0.0,1.0,85,0.00,,,0.01,Wunderground v.1.15,2013-06-30 16:10:00,
2013-06-30 12:15:00,72.3,67.2,29.70,NNE,13,0.0,1.0,84,0.00,,,0.01,Wunderground v.1.15,2013-06-30 16:15:00,
2013-06-30 12:25:00,73.2,67.4,29.70,NNE,13,0.0,0.0,82,0.00,,,0.01,Wunderground v.1.15,2013-06-30 16:25:00,
2013-06-30 12:30:00,73.0,66.8,29.70,NNE,13,0.0,0.0,81,0.00,,,0.01,Wunderground v.1.15,2013-06-30 16:30:00,
2013-06-30 12:40:00,73.2,67.0,29.70,NNE,17,0.0,0.0,81,0.00,,,0.01,Wunderground v.1.15,2013-06-30 16:40:00,
2013-06-30 12:45:00,73.0,67.2,29.70,NNE,24,0.0,0.0,82,0.00,,,0.01,Wunderground v.1.15,2013-06-30 16:45:00,
2013-06-30 12:55:00,73.3,65.3,29.70,NW,315,0.0,0.0,76,0.00,,,0.01,Wunderground v.1.15,2013-06-30 16:55:00,
2013-06-30 13:00:00,73.5,66.9,29.70,NW,315,0.0,0.0,80,0.00,,,0.01,Wunderground v.1.15,2013-06-30 17:00:00,
2013-06-30 13:10:00,74.7,66.2,29.70,SSE,158,1.0,1.0,75,0.00,,,0.01,Wunderground v.1.15,2013-06-30 17:10:00,
2013-06-30 13:15:00,75.8,68.8,29.70,East,93,0.0,1.0,79,0.00,,,0.01,Wunderground v.1.15,2013-06-30 17:15:00,
2013-06-30 13:25:00,75.4,67.3,29.70,North,11,1.0,1.0,76,0.00,,,0.01,Wunderground v.1.15,2013-06-30 17:25:00,
2013-06-30 13:30:00,75.6,68.3,29.69,North,11,0.0,0.0,78,0.00,,,0.01,Wunderground v.1.15,2013-06-30 17:30:00,
2013-06-30 13:40:00,76.5,68.7,29.69,SW,224,0.0,0.0,77,0.00,,,0.01,Wunderground v.1.15,2013-06-30 17:40:00,
2013-06-30 13:45:00,77.2,68.7,29.69,NNE,17,0.0,1.0,75,0.00,,,0.01,Wunderground v.1.15,2013-06-30 17:45:00,
2013-06-30 13:55:00,77.6,66.6,29.69,North,11,0.0,2.0,69,0.00,,,0.01,Wunderground v.1.15,2013-06-30 17:55:00,
2013-06-30 14:00:00,77.7,67.1,29.69,North,5,0.0,0.0,70,0.00,,,0.01,Wunderground v.1.15,2013-06-30 18:00:00,
2013-06-30 14:10:00,77.6,66.2,29.69,NNE,30,0.0,0.0,68,0.00,,,0.01,Wunderground v.1.15,2013-06-30 18:10:00,
2013-06-30 14:15:00,77.0,66.0,29.69,NNE,28,0.0,0.0,69,0.00,,,0.01,Wunderground v.1.15,2013-06-30 18:15:00,
2013-06-30 14:25:00,77.2,66.7,29.69,NNW,333,0.0,1.0,70,0.00,,,0.01,Wunderground v.1.15,2013-06-30 18:25:00,
2013-06-30 14:30:00,77.6,66.2,29.68,NE,50,0.0,1.0,68,0.00,,,0.01,Wunderground v.1.15,2013-06-30 18:30:00,
2013-06-30 14:40:00,77.6,66.6,29.68,NNE,15,0.0,0.0,69,0.00,,,0.01,Wunderground v.1.15,2013-06-30 18:40:00,
2013-06-30 14:45:00,77.7,66.3,29.68,NE,42,0.0,4.0,68,0.00,,,0.01,Wunderground v.1.15,2013-06-30 18:45:00,
2013-06-30 14:55:00,77.7,64.1,29.68,West,274,1.0,2.0,63,0.00,,,0.01,Wunderground v.1.15,2013-06-30 18:55:00,
2013-06-30 15:00:00,78.1,67.5,29.68,West,274,1.0,1.0,70,0.00,,,0.01,Wunderground v.1.15,2013-06-30 19:00:00,
2013-06-30 15:10:00,77.9,66.1,29.68,WNW,291,0.0,0.0,67,0.00,,,0.01,Wunderground v.1.15,2013-06-30 19:10:00,
2013-06-30 15:15:00,77.0,66.5,29.67,WNW,291,0.0,0.0,70,0.00,,,0.01,Wunderground v.1.15,2013-06-30 19:15:00,
2013-06-30 15:25:00,75.6,66.7,29.67,WNW,291,0.0,0.0,74,0.00,,,0.01,Wunderground v.1.15,2013-06-30 19:25:00,
2013-06-30 15:30:00,74.6,65.0,29.68,South,188,1.0,1.0,72,0.00,,,0.01,Wunderground v.1.15,2013-06-30 19:30:00,
2013-06-30 15:40:00,71.3,65.9,29.68,SSW,211,2.0,2.0,83,0.66,,,0.12,Wunderground v.1.15,2013-06-30 19:40:00,
2013-06-30 15:45:00,70.4,66.0,29.69,SSW,211,0.0,2.0,86,0.25,,,0.14,Wunderground v.1.15,2013-06-30 19:45:00,
2013-06-30 15:55:00,69.8,66.7,29.69,SSW,211,0.0,0.0,90,0.08,,,0.15,Wunderground v.1.15,2013-06-30 19:55:00,
2013-06-30 16:00:00,69.4,66.7,29.69,SSW,211,0.0,0.0,91,0.06,,,0.15,Wunderground v.1.15,2013-06-30 20:00:00,
2013-06-30 16:05:00,69.3,66.6,29.69,SSW,211,0.0,0.0,91,0.04,,,0.15,Wunderground v.1.15,2013-06-30 20:05:00,
2013-06-30 16:15:00,69.4,67.0,29.70,SSW,211,0.0,0.0,92,0.00,,,0.15,Wunderground v.1.15,2013-06-30 20:15:00,
2013-06-30 16:25:00,69.4,67.0,29.70,SSW,211,0.0,0.0,92,0.00,,,0.15,Wunderground v.1.15,2013-06-30 20:25:00,
2013-06-30 16:30:00,69.4,67.3,29.70,SSW,211,0.0,0.0,93,0.00,,,0.15,Wunderground v.1.15,2013-06-30 20:30:00,
2013-06-30 16:40:00,69.6,67.5,29.70,ENE,65,0.0,2.0,93,0.00,,,0.15,Wunderground v.1.15,2013-06-30 20:40:00,
2013-06-30 16:45:00,68.8,66.4,29.71,ENE,64,0.0,2.0,92,0.00,,,0.15,Wunderground v.1.15,2013-06-30 20:45:00,
2013-06-30 16:55:00,68.6,66.2,29.71,ENE,64,0.0,0.0,92,0.00,,,0.15,Wunderground v.1.15,2013-06-30 20:55:00,
2013-06-30 17:00:00,68.3,65.6,29.72,ENE,69,0.0,1.0,91,0.00,,,0.15,Wunderground v.1.15,2013-06-30 21:00:00,
2013-06-30 17:10:00,67.4,64.4,29.72,NE,48,0.0,1.0,90,0.00,,,0.15,Wunderground v.1.15,2013-06-30 21:10:00,
2013-06-30 17:15:00,66.6,63.6,29.72,NE,53,1.0,1.0,90,0.00,,,0.15,Wunderground v.1.15,2013-06-30 21:15:00,
2013-06-30 17:25:00,66.9,64.5,29.72,ENE,65,1.0,1.0,92,0.00,,,0.15,Wunderground v.1.15,2013-06-30 21:25:00,
2013-06-30 17:30:00,67.3,64.3,29.71,NE,37,1.0,1.0,90,0.00,,,0.15,Wunderground v.1.15,2013-06-30 21:30:00,
2013-06-30 17:40:00,67.6,64.2,29.71,West,279,0.0,0.0,89,0.00,,,0.15,Wunderground v.1.15,2013-06-30 21:40:00,
2013-06-30 17:45:00,67.8,64.1,29.72,West,279,0.0,0.0,88,0.00,,,0.15,Wunderground v.1.15,2013-06-30 21:45:00,
2013-06-30 17:55:00,67.6,63.9,29.72,NNW,348,0.0,0.0,88,0.00,,,0.15,Wunderground v.1.15,2013-06-30 21:55:00,
2013-06-30 18:00:00,67.6,63.9,29.71,NNW,348,0.0,0.0,88,0.00,,,0.15,Wunderground v.1.15,2013-06-30 22:00:00,
2013-06-30 18:10:00,68.1,64.7,29.71,NNW,348,0.0,0.0,89,0.00,,,0.15,Wunderground v.1.15,2013-06-30 22:10:00,
2013-06-30 18:15:00,68.4,65.0,29.71,NNW,347,0.0,2.0,89,0.00,,,0.15,Wunderground v.1.15,2013-06-30 22:15:00,
2013-06-30 18:25:00,68.4,64.4,29.71,NNE,26,1.0,1.0,87,0.00,,,0.15,Wunderground v.1.15,2013-06-30 22:25:00,
2013-06-30 18:30:00,68.4,64.4,29.72,NNE,26,0.0,0.0,87,0.00,,,0.15,Wunderground v.1.15,2013-06-30 22:30:00,
2013-06-30 18:40:00,68.6,63.6,29.72,NNE,14,1.0,1.0,84,0.00,,,0.15,Wunderground v.1.15,2013-06-30 22:40:00,
2013-06-30 18:45:00,69.1,64.4,29.73,NE,52,0.0,1.0,85,0.00,,,0.15,Wunderground v.1.15,2013-06-30 22:45:00,
2013-06-30 18:55:00,69.6,64.2,29.73,NNE,23,0.0,0.0,83,0.00,,,0.15,Wunderground v.1.15,2013-06-30 22:55:00,
2013-06-30 19:00:00,69.6,64.5,29.73,NNE,23,0.0,0.0,84,0.00,,,0.15,Wunderground v.1.15,2013-06-30 23:00:00,
2013-06-30 19:05:00,69.6,64.5,29.73,NNE,23,0.0,0.0,84,0.00,,,0.15,Wunderground v.1.15,2013-06-30 23:05:00,
2013-06-30 19:15:00,69.4,64.0,29.73,North,5,0.0,1.0,83,0.00,,,0.15,Wunderground v.1.15,2013-06-30 23:15:00,
2013-06-30 19:25:00,68.8,63.8,29.73,NE,47,1.0,1.0,84,0.00,,,0.15,Wunderground v.1.15,2013-06-30 23:25:00,
2013-06-30 19:30:00,68.6,63.9,29.73,NE,47,0.0,0.0,85,0.00,,,0.15,Wunderground v.1.15,2013-06-30 23:30:00,
2013-06-30 19:40:00,68.4,64.0,29.73,NE,47,0.0,1.0,86,0.00,,,0.15,Wunderground v.1.15,2013-06-30 23:40:00,
2013-06-30 19:45:00,68.3,64.3,29.74,NNE,26,0.0,1.0,87,0.00,,,0.15,Wunderground v.1.15,2013-06-30 23:45:00,
2013-06-30 19:55:00,68.1,64.1,29.74,NNE,26,0.0,0.0,87,0.00,,,0.15,Wunderground v.1.15,2013-06-30 23:55:00,
2013-06-30 20:00:00,67.9,63.9,29.75,NNE,26,0.0,0.0,87,0.00,,,0.15,Wunderground v.1.15,2013-07-01 00:00:00,
2013-06-30 20:10:00,67.8,64.1,29.75,ENE,76,0.0,0.0,88,0.00,,,0.15,Wunderground v.1.15,2013-07-01 00:10:00,
2013-06-30 20:15:00,67.8,63.8,29.75,ENE,76,0.0,0.0,87,0.00,,,0.15,Wunderground v.1.15,2013-07-01 00:15:00,
2013-06-30 20:25:00,67.6,63.9,29.75,ENE,63,0.0,1.0,88,0.00,,,0.15,Wunderground v.1.15,2013-07-01 00:25:00,
2013-06-30 20:30:00,67.4,63.7,29.75,ENE,62,0.0,0.0,88,0.00,,,0.15,Wunderground v.1.15,2013-07-01 00:30:00,
2013-06-30 20:40:00,67.3,63.6,29.75,North,5,0.0,1.0,88,0.00,,,0.15,Wunderground v.1.15,2013-07-01 00:40:00,
2013-06-30 20:45:00,67.1,63.7,29.75,NNE,12,0.0,1.0,89,0.00,,,0.15,Wunderground v.1.15,2013-07-01 00:45:00,
2013-06-30 20:55:00,67.1,63.7,29.75,NNE,16,0.0,0.0,89,0.00,,,0.15,Wunderground v.1.15,2013-07-01 00:55:00,
2013-06-30 21:00:00,67.1,63.7,29.75,North,360,0.0,0.0,89,0.00,,,0.15,Wunderground v.1.15,2013-07-01 01:00:00,
2013-06-30 21:10:00,67.1,64.1,29.75,North,360,0.0,0.0,90,0.00,,,0.15,Wunderground v.1.15,2013-07-01 01:10:00,
2013-06-30 21:15:00,66.9,63.9,29.75,NNE,17,0.0,0.0,90,0.00,,,0.15,Wunderground v.1.15,2013-07-01 01:15:00,
2013-06-30 21:25:00,66.9,63.9,29.75,ENE,60,0.0,2.0,90,0.00,,,0.15,Wunderground v.1.15,2013-07-01 01:25:00,
2013-06-30 21:30:00,66.9,63.9,29.75,ENE,61,0.0,0.0,90,0.00,,,0.15,Wunderground v.1.15,2013-07-01 01:30:00,
2013-06-30 21:40:00,66.9,64.2,29.75,ENE,61,0.0,1.0,91,0.00,,,0.15,Wunderground v.1.15,2013-07-01 01:40:00,
2013-06-30 21:45:00,66.9,64.2,29.75,ENE,61,0.0,1.0,91,0.00,,,0.15,Wunderground v.1.15,2013-07-01 01:45:00,
2013-06-30 21:55:00,66.8,64.1,29.75,NNW,347,0.0,0.0,91,0.00,,,0.15,Wunderground v.1.15,2013-07-01 01:55:00,
2013-06-30 22:00:00,66.8,64.1,29.77,NNW,348,0.0,0.0,91,0.00,,,0.15,Wunderground v.1.15,2013-07-01 02:00:00,
2013-06-30 22:10:00,66.6,63.9,29.77,North,360,0.0,0.0,91,0.00,,,0.15,Wunderground v.1.15,2013-07-01 02:10:00,
2013-06-30 22:15:00,66.6,63.9,29.76,North,360,0.0,1.0,91,0.00,,,0.15,Wunderground v.1.15,2013-07-01 02:15:00,
2013-06-30 22:25:00,66.4,63.4,29.76,North,11,0.0,1.0,90,0.00,,,0.15,Wunderground v.1.15,2013-07-01 02:25:00,
2013-06-30 22:30:00,66.4,63.4,29.77,North,355,0.0,2.0,90,0.00,,,0.15,Wunderground v.1.15,2013-07-01 02:30:00,
2013-06-30 22:40:00,66.3,63.3,29.77,NW,304,0.0,0.0,90,0.00,,,0.15,Wunderground v.1.15,2013-07-01 02:40:00,
2013-06-30 22:45:00,66.1,63.1,29.77,NE,44,0.0,0.0,90,0.00,,,0.15,Wunderground v.1.15,2013-07-01 02:45:00,
2013-06-30 22:55:00,66.0,63.3,29.77,NE,44,0.0,0.0,91,0.00,,,0.15,Wunderground v.1.15,2013-07-01 02:55:00,
2013-06-30 23:00:00,66.0,63.3,29.77,NNE,17,0.0,0.0,91,0.00,,,0.15,Wunderground v.1.15,2013-07-01 03:00:00,
2013-06-30 23:10:00,65.8,63.1,29.77,NNE,24,0.0,0.0,91,0.00,,,0.15,Wunderground v.1.15,2013-07-01 03:10:00,
2013-06-30 23:15:00,65.6,62.9,29.77,NNE,15,0.0,0.0,91,0.00,,,0.15,Wunderground v.1.15,2013-07-01 03:15:00,
2013-06-30 23:25:00,65.5,62.8,29.77,NNE,15,0.0,1.0,91,0.00,,,0.15,Wunderground v.1.15,2013-07-01 03:25:00,
2013-06-30 23:30:00,65.5,62.8,29.77,NNE,15,0.0,0.0,91,0.00,,,0.15,Wunderground v.1.15,2013-07-01 03:30:00,
2013-06-30 23:40:00,65.3,62.9,29.77,NNE,15,0.0,0.0,92,0.00,,,0.15,Wunderground v.1.15,2013-07-01 03:40:00,
2013-06-30 23:45:00,65.3,62.6,29.77,NE,38,0.0,2.0,91,0.00,,,0.15,Wunderground v.1.15,2013-07-01 03:45:00,
2013-06-30 23:55:00,65.2,62.8,29.77,NE,45,0.0,0.0,92,0.00,,,0.15,Wunderground v.1.15,2013-07-01 03:55:00,